Time;durP1;ratioP1;P1;durP2;ratioP2;P2;SDS_P1;SDS_P2;PMS_P1;PMS_P2;Temp;Humidity;BMP_temperature;BMP_pressure;BME280_temperature;BME280_humidity;BME280_pressure;Samples;Min_cycle;Max_cycle;Signal;HPM_P1;HPM_P2
2022/01/03 00:00:47;;;;;;;3.42;0.68;;;10.60;99.90;;;;;;4939492;29;20034;-86
2022/01/03 00:03:15;;;;;;;0.98;0.40;;;10.50;99.90;;;;;;4937340;29;20519;-86
2022/01/03 00:05:40;;;;;;;0.68;0.20;;;10.60;99.90;;;;;;4939387;29;20369;-86
2022/01/03 00:08:06;;;;;;;1.00;0.30;;;10.50;99.90;;;;;;4937522;29;20027;-86
2022/01/03 00:10:33;;;;;;;4.10;0.60;;;10.50;99.90;;;;;;4953425;29;20019;-86
2022/01/03 00:13:00;;;;;;;1.27;0.32;;;10.50;99.90;;;;;;4943370;28;20023;-85
2022/01/03 00:15:27;;;;;;;1.65;0.45;;;10.40;99.90;;;;;;4922335;29;21172;-86
2022/01/03 00:17:53;;;;;;;0.50;0.20;;;10.60;99.90;;;;;;4949414;29;20062;-86
2022/01/03 00:20:21;;;;;;;2.30;0.40;;;10.50;99.90;;;;;;4932600;29;20125;-86
2022/01/03 00:23:00;;;;;;;3.38;0.70;;;10.60;99.90;;;;;;4936041;29;20036;-86
2022/01/03 00:25:26;;;;;;;2.42;0.40;;;10.60;99.90;;;;;;4932405;29;20067;-84
2022/01/03 00:28:19;;;;;;;2.97;0.65;;;10.60;99.90;;;;;;4936670;29;20570;-86
2022/01/03 00:30:47;;;;;;;0.88;0.30;;;10.60;99.90;;;;;;4930877;29;20166;-86
2022/01/03 00:33:14;;;;;;;0.82;0.20;;;10.60;99.90;;;;;;4935460;29;20028;-85
2022/01/03 00:35:41;;;;;;;2.45;0.30;;;10.60;99.90;;;;;;4937614;29;20058;-86
2022/01/03 00:38:12;;;;;;;1.83;0.52;;;10.60;99.90;;;;;;4933073;29;20027;-85
2022/01/03 00:40:40;;;;;;;1.42;0.65;;;10.70;99.90;;;;;;4936262;29;20027;-85
2022/01/03 00:43:06;;;;;;;0.77;0.32;;;10.70;99.90;;;;;;4933218;29;20036;-86
2022/01/03 00:45:32;;;;;;;1.08;0.20;;;10.70;99.90;;;;;;4934901;29;20055;-86
2022/01/03 00:47:58;;;;;;;2.13;0.45;;;10.80;99.90;;;;;;4936997;29;20049;-86
2022/01/03 00:50:24;;;;;;;3.20;0.70;;;10.80;99.90;;;;;;4937712;29;20748;-86
2022/01/03 00:52:51;;;;;;;1.55;0.40;;;10.70;99.90;;;;;;4944404;29;20164;-86
2022/01/03 00:55:18;;;;;;;2.38;0.43;;;10.70;99.90;;;;;;4940626;29;20114;-86
2022/01/03 00:57:49;;;;;;;1.15;0.20;;;10.80;99.90;;;;;;4938682;29;20401;-86
2022/01/03 01:00:15;;;;;;;1.80;0.40;;;10.80;99.90;;;;;;4935259;29;20094;-86
2022/01/03 01:03:00;;;;;;;2.40;0.30;;;10.70;99.90;;;;;;4935713;29;20028;-86
2022/01/03 01:05:27;;;;;;;2.33;0.33;;;10.70;99.90;;;;;;4925884;29;20036;-86
2022/01/03 01:07:56;;;;;;;2.85;0.40;;;10.70;99.90;;;;;;4936857;29;20114;-86
2022/01/03 01:10:25;;;;;;;2.50;0.50;;;10.60;99.90;;;;;;4951665;29;20398;-86
2022/01/03 01:12:51;;;;;;;1.67;0.35;;;10.80;99.90;;;;;;4951449;28;20125;-86
2022/01/03 01:15:17;;;;;;;1.45;0.35;;;10.70;99.90;;;;;;4947702;28;20548;-86
2022/01/03 01:17:42;;;;;;;1.50;0.47;;;10.60;99.90;;;;;;4940959;28;20111;-86
2022/01/03 01:20:09;;;;;;;1.75;0.47;;;10.70;99.90;;;;;;4948941;28;20090;-86
2022/01/03 01:22:36;;;;;;;1.20;0.20;;;10.70;99.90;;;;;;4932089;29;20075;-86
2022/01/03 01:27:50;;;;;;;1.40;0.30;;;10.70;99.90;;;;;;4940369;29;20028;-86
2022/01/03 01:30:21;;;;;;;3.47;0.43;;;10.60;99.90;;;;;;4946267;28;20035;-86
2022/01/03 01:33:01;;;;;;;2.88;0.30;;;10.70;99.90;;;;;;4953967;29;20015;-86
2022/01/03 01:35:36;;;;;;;1.13;0.25;;;10.70;99.90;;;;;;4937917;29;21326;-86
2022/01/03 01:38:03;;;;;;;1.67;0.38;;;10.60;99.90;;;;;;4932105;29;20023;-86
2022/01/03 01:40:29;;;;;;;1.55;0.28;;;10.60;99.90;;;;;;4935980;29;20058;-86
2022/01/03 01:42:55;;;;;;;2.70;0.52;;;10.50;99.90;;;;;;4943886;29;20026;-86
2022/01/03 01:45:26;;;;;;;1.90;0.40;;;10.50;99.90;;;;;;4930099;29;20023;-86
2022/01/03 01:47:58;;;;;;;1.85;0.47;;;10.50;99.90;;;;;;4934179;29;20028;-86
2022/01/03 01:50:26;;;;;;;2.85;0.40;;;10.50;99.90;;;;;;4936518;29;20107;-86
2022/01/03 01:52:56;;;;;;;2.33;0.30;;;10.50;99.90;;;;;;4945779;29;20046;-86
2022/01/03 01:55:22;;;;;;;1.77;0.50;;;10.50;99.90;;;;;;4943239;28;20024;-87
2022/01/03 01:58:04;;;;;;;0.80;0.30;;;10.50;99.90;;;;;;4934008;29;20562;-85
2022/01/03 02:00:34;;;;;;;3.45;0.50;;;10.50;99.90;;;;;;4935122;29;20031;-86
2022/01/03 02:03:35;;;;;;;0.73;0.20;;;10.40;99.90;;;;;;4934805;29;20031;-86
2022/01/03 02:06:26;;;;;;;1.10;0.20;;;10.40;99.90;;;;;;4922061;29;20110;-86
2022/01/03 02:09:08;;;;;;;3.75;0.68;;;10.40;99.90;;;;;;4946959;29;20050;-86
2022/01/03 02:11:56;;;;;;;1.80;0.30;;;10.40;99.90;;;;;;4949577;29;20547;-86
2022/01/03 02:14:24;;;;;;;2.70;0.30;;;10.40;99.90;;;;;;4951204;29;20042;-86
2022/01/03 02:16:51;;;;;;;1.20;0.20;;;10.40;99.90;;;;;;4947423;29;20023;-85
2022/01/03 02:19:19;;;;;;;0.47;0.20;;;10.30;99.90;;;;;;4938032;29;20024;-86
2022/01/03 02:21:45;;;;;;;1.33;0.15;;;10.30;99.90;;;;;;4937302;29;20056;-86
2022/01/03 02:24:15;;;;;;;1.17;0.30;;;10.30;99.90;;;;;;4936722;29;20387;-86
2022/01/03 02:26:41;;;;;;;1.05;0.20;;;10.20;99.90;;;;;;4940954;29;20032;-86
2022/01/03 02:29:07;;;;;;;2.05;0.50;;;10.20;99.90;;;;;;4920839;29;20086;-86
2022/01/03 02:31:34;;;;;;;2.75;0.25;;;10.20;99.90;;;;;;4945991;29;20027;-85
2022/01/03 02:34:01;;;;;;;2.35;0.30;;;10.10;99.90;;;;;;4937677;29;20487;-86
2022/01/03 02:36:29;;;;;;;1.60;0.30;;;10.10;99.90;;;;;;4935862;29;20028;-87
2022/01/03 02:38:55;;;;;;;0.40;0.20;;;10.00;99.90;;;;;;4923622;29;20019;-86
2022/01/03 02:41:21;;;;;;;0.95;0.30;;;10.00;99.90;;;;;;4938411;29;20126;-85
2022/01/03 02:43:49;;;;;;;1.38;0.20;;;10.00;99.90;;;;;;4937398;29;20059;-86
2022/01/03 02:46:15;;;;;;;2.43;0.40;;;10.10;99.90;;;;;;4955710;29;20027;-86
2022/01/03 02:48:40;;;;;;;2.72;0.52;;;10.00;99.90;;;;;;4956809;29;20394;-86
2022/01/03 02:51:06;;;;;;;2.67;0.30;;;9.90;99.90;;;;;;4945744;29;20035;-86
2022/01/03 02:53:32;;;;;;;0.60;0.20;;;9.90;99.90;;;;;;4942071;29;20031;-86
2022/01/03 02:55:58;;;;;;;9.32;0.35;;;10.00;99.90;;;;;;4940093;29;20425;-86
2022/01/03 02:58:23;;;;;;;2.05;0.30;;;9.90;99.90;;;;;;4948655;29;20054;-86
2022/01/03 03:00:51;;;;;;;2.97;0.60;;;9.90;99.90;;;;;;4944892;29;20110;-86
2022/01/03 03:03:19;;;;;;;1.77;0.28;;;9.90;99.90;;;;;;4947899;29;20027;-86
2022/01/03 03:05:46;;;;;;;4.32;0.40;;;9.90;99.90;;;;;;4926621;29;20035;-85
2022/01/03 03:08:12;;;;;;;2.53;0.43;;;9.90;99.90;;;;;;4933753;28;20038;-86
2022/01/03 03:10:38;;;;;;;3.58;0.57;;;9.90;99.90;;;;;;4938195;29;20070;-86
2022/01/03 03:13:04;;;;;;;3.65;0.60;;;9.80;99.90;;;;;;4944609;28;20060;-85
2022/01/03 03:15:32;;;;;;;1.55;0.50;;;9.80;99.90;;;;;;4939138;28;20468;-85
2022/01/03 03:17:58;;;;;;;4.63;0.80;;;9.80;99.90;;;;;;4937390;29;20472;-86
2022/01/03 03:20:26;;;;;;;3.35;0.47;;;9.80;99.90;;;;;;4937098;29;20130;-86
2022/01/03 03:22:52;;;;;;;1.10;0.30;;;9.90;99.90;;;;;;4942031;29;20038;-86
2022/01/03 03:25:22;;;;;;;0.98;0.20;;;9.90;99.90;;;;;;4947111;29;20061;-85
2022/01/03 03:27:50;;;;;;;1.95;0.30;;;10.00;99.90;;;;;;4952002;29;20027;-86
2022/01/03 03:30:19;;;;;;;1.97;0.53;;;9.90;99.90;;;;;;4953360;28;20082;-86
2022/01/03 03:32:47;;;;;;;1.17;0.30;;;9.90;99.90;;;;;;4947713;29;20038;-87
2022/01/03 03:35:14;;;;;;;2.45;0.30;;;9.80;99.90;;;;;;4945492;29;20039;-85
2022/01/03 03:37:39;;;;;;;2.13;0.30;;;9.90;99.90;;;;;;4942856;28;20019;-86
2022/01/03 03:40:06;;;;;;;1.40;0.30;;;9.90;99.90;;;;;;4950643;29;20047;-85
2022/01/03 03:42:32;;;;;;;3.27;0.20;;;9.80;99.90;;;;;;4932366;29;20027;-86
2022/01/03 03:44:57;;;;;;;1.03;0.30;;;9.90;99.90;;;;;;4936799;29;20042;-85
2022/01/03 03:47:23;;;;;;;2.20;0.33;;;9.80;99.90;;;;;;4938270;29;20059;-86
2022/01/03 03:49:49;;;;;;;0.90;0.30;;;9.80;99.90;;;;;;4938623;29;20114;-86
2022/01/03 03:52:14;;;;;;;3.40;0.50;;;9.80;99.90;;;;;;4947261;29;20062;-85
2022/01/03 03:54:40;;;;;;;4.88;0.40;;;9.70;99.90;;;;;;4938169;29;20432;-86
2022/01/03 03:57:08;;;;;;;1.67;0.23;;;9.80;99.90;;;;;;4940426;29;20028;-85
2022/01/03 03:59:34;;;;;;;1.35;0.30;;;9.80;99.90;;;;;;4954386;29;20479;-86
2022/01/03 04:02:00;;;;;;;3.17;0.40;;;9.80;99.90;;;;;;4942538;29;20035;-86
2022/01/03 04:04:26;;;;;;;0.93;0.40;;;9.80;99.90;;;;;;4941404;29;20043;-86
2022/01/03 04:06:51;;;;;;;1.33;0.30;;;9.80;99.90;;;;;;4941549;29;20480;-85
2022/01/03 04:09:17;;;;;;;1.93;0.40;;;9.70;99.90;;;;;;4947562;28;20052;-86
2022/01/03 04:11:43;;;;;;;1.33;0.30;;;9.70;99.90;;;;;;4931028;29;20522;-86
2022/01/03 04:14:09;;;;;;;1.37;0.40;;;9.80;99.90;;;;;;4942341;29;20027;-85
2022/01/03 04:16:35;;;;;;;1.20;0.35;;;9.70;99.90;;;;;;4949156;29;20167;-86
2022/01/03 04:19:01;;;;;;;0.87;0.20;;;9.80;99.90;;;;;;4940066;28;20388;-85
2022/01/03 04:21:27;;;;;;;2.10;0.40;;;9.60;99.90;;;;;;4938658;29;20019;-86
2022/01/03 04:23:53;;;;;;;2.17;0.40;;;9.50;99.90;;;;;;4938612;29;20765;-86
2022/01/03 04:26:19;;;;;;;0.87;0.20;;;9.60;99.90;;;;;;4951223;29;20035;-85
2022/01/03 04:28:44;;;;;;;2.00;0.53;;;9.60;99.90;;;;;;4940469;29;20050;-85
2022/01/03 04:31:10;;;;;;;3.73;0.50;;;9.60;99.90;;;;;;4935907;29;20488;-86
2022/01/03 04:33:36;;;;;;;5.23;0.60;;;9.60;99.90;;;;;;4935966;29;20034;-86
2022/01/03 04:36:04;;;;;;;2.40;0.30;;;9.60;99.90;;;;;;4950917;29;20118;-85
2022/01/03 04:38:29;;;;;;;4.80;0.37;;;9.60;99.90;;;;;;4942699;28;20038;-85
2022/01/03 04:40:55;;;;;;;2.33;0.40;;;9.60;99.90;;;;;;4936875;29;20032;-86
2022/01/03 04:43:21;;;;;;;4.57;0.30;;;9.70;99.90;;;;;;4949885;29;20412;-85
2022/01/03 04:45:46;;;;;;;4.13;0.53;;;9.70;99.90;;;;;;4952588;29;20039;-86
2022/01/03 04:48:12;;;;;;;1.83;0.43;;;9.70;99.90;;;;;;4951467;29;20051;-86
2022/01/03 04:50:38;;;;;;;2.07;0.90;;;9.70;99.90;;;;;;4949527;29;20023;-86
2022/01/03 04:53:03;;;;;;;5.18;0.40;;;9.70;99.90;;;;;;4944062;29;20468;-86
2022/01/03 04:55:29;;;;;;;2.20;0.53;;;9.70;99.90;;;;;;4941950;29;20086;-85
2022/01/03 04:57:55;;;;;;;4.90;0.60;;;9.70;99.90;;;;;;4935749;29;20023;-86
2022/01/03 05:00:20;;;;;;;3.37;0.50;;;9.70;99.90;;;;;;4944159;29;20199;-86
2022/01/03 05:02:46;;;;;;;3.85;0.30;;;9.70;99.90;;;;;;4952398;29;20038;-85
2022/01/03 05:05:13;;;;;;;1.25;0.20;;;9.60;99.90;;;;;;4946547;29;20445;-86
2022/01/03 05:07:39;;;;;;;2.07;0.50;;;9.80;99.90;;;;;;4946111;28;20043;-86
2022/01/03 05:10:05;;;;;;;4.50;0.52;;;9.70;99.90;;;;;;4940595;28;20031;-86
2022/01/03 05:12:31;;;;;;;4.00;0.80;;;9.70;99.90;;;;;;4943029;29;20111;-86
2022/01/03 05:14:56;;;;;;;3.25;0.50;;;9.70;99.90;;;;;;4938367;29;20492;-86
2022/01/03 05:17:22;;;;;;;1.70;0.40;;;9.60;99.90;;;;;;4940949;29;20468;-86
2022/01/03 05:19:47;;;;;;;3.60;0.43;;;9.60;99.90;;;;;;4953976;29;20118;-85
2022/01/03 05:22:13;;;;;;;2.20;0.33;;;9.60;99.90;;;;;;4944265;29;20039;-86
2022/01/03 05:24:38;;;;;;;2.33;0.30;;;9.60;99.90;;;;;;4942415;29;20019;-86
2022/01/03 05:27:05;;;;;;;0.83;0.37;;;9.60;99.90;;;;;;4950035;29;20391;-85
2022/01/03 05:29:32;;;;;;;1.47;0.27;;;9.60;99.90;;;;;;4929303;29;20440;-86
2022/01/03 05:31:57;;;;;;;1.10;0.30;;;9.50;99.90;;;;;;4938093;29;20020;-86
2022/01/03 05:34:23;;;;;;;2.60;0.40;;;9.50;99.90;;;;;;4940124;29;20031;-86
2022/01/03 05:36:49;;;;;;;2.92;0.40;;;9.50;99.90;;;;;;4945152;29;21228;-86
2022/01/03 05:39:15;;;;;;;4.03;0.38;;;9.50;99.90;;;;;;4945985;28;20083;-86
2022/01/03 05:41:41;;;;;;;4.63;0.30;;;9.50;99.90;;;;;;4969488;23;20047;-89
2022/01/03 05:44:17;;;;;;;1.38;0.35;;;9.60;99.90;;;;;;4957387;29;20019;-89
2022/01/03 05:46:54;;;;;;;2.25;0.38;;;9.60;99.90;;;;;;4938798;28;20028;-89
2022/01/03 05:49:27;;;;;;;1.80;0.33;;;9.60;99.90;;;;;;4938947;29;20027;-89
2022/01/03 05:52:05;;;;;;;0.60;0.20;;;9.60;99.90;;;;;;4939727;29;20023;-89
2022/01/03 05:54:37;;;;;;;1.23;0.13;;;9.70;99.90;;;;;;4959054;28;20020;-89
2022/01/03 05:57:46;;;;;;;0.80;0.20;;;9.70;99.90;;;;;;4940469;29;20020;-89
2022/01/03 06:00:35;;;;;;;2.75;0.22;;;9.70;99.90;;;;;;4943367;29;20038;-89
2022/01/03 06:03:32;;;;;;;;;;;;;;;;;;;;;
2022/01/03 06:06:30;;;;;;;2.20;0.47;;;9.70;99.90;;;;;;4962793;28;20130;-89
2022/01/03 06:09:13;;;;;;;2.17;0.63;;;9.60;99.90;;;;;;4945523;29;20783;-89
2022/01/03 06:11:50;;;;;;;2.13;0.30;;;9.60;99.90;;;;;;4954019;29;20020;-88
2022/01/03 06:17:45;;;;;;;3.23;0.30;;;9.60;99.90;;;;;;4946272;29;20456;-88
2022/01/03 06:20:43;;;;;;;7.53;0.63;;;9.50;99.90;;;;;;4941450;29;20029;-89
2022/01/03 06:23:16;;;;;;;3.40;0.40;;;9.40;99.90;;;;;;4952107;28;20035;-88
2022/01/03 06:25:55;;;;;;;1.80;0.63;;;9.40;99.90;;;;;;4945816;29;20042;-89
2022/01/03 06:28:33;;;;;;;1.20;0.20;;;9.40;99.90;;;;;;4941928;29;20063;-89
2022/01/03 06:31:19;;;;;;;1.73;0.40;;;9.30;99.90;;;;;;4939097;29;20060;-88
2022/01/03 06:33:59;;;;;;;2.37;0.43;;;9.30;99.90;;;;;;4953483;29;20027;-88
2022/01/03 06:39:24;;;;;;;1.17;0.27;;;9.50;99.90;;;;;;4953753;28;20023;-88
2022/01/03 06:45:46;;;;;;;1.60;0.30;;;9.40;99.90;;;;;;4936230;29;20487;-88
2022/01/03 06:48:37;;;;;;;3.50;0.43;;;9.40;99.90;;;;;;4944960;29;20015;-88
2022/01/03 07:27:21;;;;;;;5.50;0.50;;;8.80;99.90;;;;;;1172471;26;20165;-89
2022/01/03 07:29:53;;;;;;;2.38;0.47;;;8.70;99.90;;;;;;4985439;28;20090;-89
2022/01/03 07:32:30;;;;;;;1.92;0.40;;;8.70;99.90;;;;;;4985563;28;20023;-89
2022/01/03 07:35:04;;;;;;;2.73;0.50;;;8.70;99.90;;;;;;4970941;28;20033;-89
2022/01/03 07:37:41;;;;;;;1.98;0.40;;;8.70;99.90;;;;;;4977899;28;20027;-89
2022/01/03 07:40:18;;;;;;;4.37;1.13;;;8.60;99.90;;;;;;4974686;28;20038;-89
2022/01/03 07:42:57;;;;;;;2.60;0.50;;;8.70;99.90;;;;;;4979614;28;20031;-89
2022/01/03 07:45:26;;;;;;;2.45;0.30;;;8.70;99.90;;;;;;4976436;28;20509;-89
2022/01/03 07:47:53;;;;;;;3.20;0.70;;;8.70;99.90;;;;;;4978397;28;20403;-89
2022/01/03 07:50:23;;;;;;;1.13;0.40;;;8.70;99.90;;;;;;4988150;28;20023;-90
2022/01/03 07:52:52;;;;;;;3.93;0.43;;;8.70;99.90;;;;;;4973888;28;20030;-89
2022/01/03 07:55:20;;;;;;;5.15;0.45;;;8.80;99.90;;;;;;4989161;28;20450;-89
2022/01/03 07:57:52;;;;;;;5.53;0.70;;;8.80;99.90;;;;;;4957664;28;20110;-89
2022/01/03 08:00:26;;;;;;;5.80;0.60;;;8.80;99.90;;;;;;4976971;28;20032;-89
2022/01/03 08:02:59;;;;;;;2.97;0.43;;;8.80;99.90;;;;;;4964020;28;20068;-89
2022/01/03 08:05:36;;;;;;;0.93;0.40;;;8.90;99.90;;;;;;4969300;28;20038;-90
2022/01/03 08:08:18;;;;;;;1.63;0.40;;;8.80;99.90;;;;;;4966394;28;20035;-89
2022/01/03 08:10:50;;;;;;;2.30;0.60;;;8.80;99.90;;;;;;4967182;28;20058;-90
2022/01/03 08:13:16;;;;;;;4.43;0.40;;;8.70;99.90;;;;;;4970666;28;20027;-89
2022/01/03 08:15:45;;;;;;;4.00;0.40;;;8.70;99.90;;;;;;4973058;28;20026;-90
2022/01/03 08:18:13;;;;;;;2.67;0.50;;;8.80;99.90;;;;;;4970219;28;20454;-88
2022/01/03 08:20:43;;;;;;;2.23;0.60;;;8.80;99.90;;;;;;4964841;28;20042;-89
2022/01/03 08:23:10;;;;;;;2.17;0.40;;;8.80;99.90;;;;;;4983147;28;20023;-89
2022/01/03 08:25:38;;;;;;;3.40;0.50;;;8.90;99.90;;;;;;4969584;28;20444;-90
2022/01/03 08:28:08;;;;;;;5.07;0.57;;;8.90;99.90;;;;;;4984802;28;20446;-89
2022/01/03 08:30:35;;;;;;;4.23;0.50;;;8.90;99.90;;;;;;4980587;28;20031;-89
2022/01/03 08:33:04;;;;;;;1.63;0.60;;;9.10;99.90;;;;;;4978212;28;20027;-89
2022/01/03 08:35:35;;;;;;;1.73;0.40;;;9.10;99.90;;;;;;4978773;28;20027;-89
2022/01/03 08:38:04;;;;;;;3.43;0.70;;;9.10;99.90;;;;;;4987778;28;20058;-87
2022/01/03 08:40:31;;;;;;;3.37;1.00;;;9.10;99.90;;;;;;4984389;28;20027;-87
2022/01/03 08:43:00;;;;;;;1.70;0.30;;;9.20;99.90;;;;;;4988122;28;20031;-88
2022/01/03 08:45:36;;;;;;;0.50;0.20;;;9.20;99.90;;;;;;4967231;28;20031;-88
2022/01/03 08:48:10;;;;;;;0.67;0.30;;;9.20;99.90;;;;;;4993843;28;20035;-89
2022/01/03 08:51:29;;;;;;;;;;;;;;;;;;;;;
2022/01/03 08:57:51;;;;;;;3.45;0.55;;;9.40;99.90;;;;;;4967961;28;20636;-89
2022/01/03 09:06:58;;;;;;;3.13;0.38;;;9.50;99.90;;;;;;4961404;28;20034;-88
2022/01/03 09:09:57;;;;;;;2.23;0.40;;;9.50;99.90;;;;;;4966985;28;20067;-88
2022/01/03 09:13:09;;;;;;;1.70;0.37;;;9.60;99.90;;;;;;4997576;28;20039;-89
2022/01/03 09:22:08;;;;;;;1.27;0.43;;;9.70;99.90;;;;;;5139208;23;20415;-89
2022/01/03 09:24:55;;;;;;;2.58;0.38;;;9.80;99.90;;;;;;4942059;29;20050;-88
2022/01/03 09:30:20;;;;;;;1.33;0.28;;;9.90;99.90;;;;;;4957815;29;20050;-89
2022/01/03 09:32:46;;;;;;;1.35;0.20;;;9.90;99.90;;;;;;4950513;29;20027;-89
2022/01/03 09:35:24;;;;;;;3.50;0.60;;;9.90;99.90;;;;;;4931533;28;20056;-90
2022/01/03 09:37:59;;;;;;;2.85;0.35;;;10.00;99.90;;;;;;4950771;28;20059;-89
2022/01/03 09:40:30;;;;;;;4.15;0.30;;;10.00;99.90;;;;;;4953823;28;20027;-89
2022/01/03 09:42:59;;;;;;;2.10;0.77;;;10.00;99.90;;;;;;4931024;28;20035;-89
2022/01/03 09:45:32;;;;;;;3.53;0.50;;;10.00;99.90;;;;;;4943255;29;20113;-89
2022/01/03 09:48:01;;;;;;;1.33;0.30;;;10.00;99.90;;;;;;4950890;28;20073;-89
2022/01/03 09:50:31;;;;;;;4.68;0.50;;;9.90;99.90;;;;;;4947626;28;20027;-89
2022/01/03 09:53:04;;;;;;;3.17;0.38;;;10.00;99.90;;;;;;4940898;29;20538;-89
2022/01/03 09:55:31;;;;;;;2.47;0.15;;;10.00;99.90;;;;;;4957475;29;20027;-90
2022/01/03 09:57:57;;;;;;;2.15;0.40;;;10.10;99.90;;;;;;4958146;29;20732;-89
2022/01/03 10:00:29;;;;;;;1.07;0.20;;;10.10;99.90;;;;;;4937983;29;20072;-90
2022/01/03 10:02:57;;;;;;;3.55;0.63;;;10.10;99.90;;;;;;4939096;29;20678;-90
2022/01/03 10:05:28;;;;;;;3.28;1.33;;;10.10;99.90;;;;;;4949266;29;20453;-89
2022/01/03 10:07:53;;;;;;;1.48;0.28;;;10.10;99.90;;;;;;4937133;29;20177;-88
2022/01/03 10:10:19;;;;;;;2.85;0.68;;;10.10;99.90;;;;;;4939169;28;20034;-89
2022/01/03 10:12:54;;;;;;;3.38;0.40;;;9.90;99.90;;;;;;4956888;28;20531;-90
2022/01/03 10:15:24;;;;;;;2.22;0.40;;;10.10;99.90;;;;;;4952022;28;20031;-89
2022/01/03 10:17:51;;;;;;;3.67;0.40;;;10.00;99.90;;;;;;4949203;29;20015;-89
2022/01/03 10:20:19;;;;;;;1.67;0.38;;;10.10;99.90;;;;;;4938006;29;20038;-89
2022/01/03 10:22:45;;;;;;;3.92;0.30;;;10.20;99.90;;;;;;4951854;28;20066;-89
2022/01/03 10:25:16;;;;;;;1.67;0.40;;;10.10;99.90;;;;;;4951803;29;20130;-89
2022/01/03 10:28:05;;;;;;;1.33;0.20;;;10.10;99.90;;;;;;4951099;29;20381;-89
2022/01/03 10:30:35;;;;;;;7.10;1.27;;;10.10;99.90;;;;;;4933216;29;20032;-89
2022/01/03 10:33:06;;;;;;;1.27;0.40;;;10.20;99.90;;;;;;4935821;29;20487;-89
2022/01/03 10:35:59;;;;;;;1.35;0.28;;;10.20;99.90;;;;;;4952924;29;20023;-89
2022/01/03 10:38:37;;;;;;;1.63;0.25;;;10.20;99.90;;;;;;4942422;29;20027;-89
2022/01/03 10:41:26;;;;;;;3.05;0.60;;;10.20;99.90;;;;;;4950212;28;20031;-89
2022/01/03 10:43:55;;;;;;;2.50;0.25;;;10.10;99.90;;;;;;4935386;29;20042;-89
2022/01/03 10:49:21;;;;;;;2.92;0.30;;;10.20;99.90;;;;;;4941850;29;20051;-90
2022/01/03 10:51:50;;;;;;;1.75;0.47;;;10.20;99.90;;;;;;4937247;28;20023;-89
2022/01/03 10:54:18;;;;;;;3.78;0.45;;;10.20;99.90;;;;;;4932718;28;20299;-88
2022/01/03 10:56:50;;;;;;;4.68;0.85;;;10.20;99.90;;;;;;4957768;28;20507;-88
2022/01/03 10:59:18;;;;;;;1.52;0.57;;;10.30;99.90;;;;;;4948671;28;20112;-89
2022/01/03 11:01:48;;;;;;;1.55;0.40;;;10.30;99.90;;;;;;4950039;28;20039;-89
2022/01/03 11:04:49;;;;;;;1.25;0.35;;;10.30;99.90;;;;;;4946860;28;20076;-89
2022/01/03 11:13:17;;;;;;;2.90;0.50;;;10.40;99.90;;;;;;4953834;28;20234;-89
2022/01/03 11:16:10;;;;;;;2.22;0.40;;;10.40;99.90;;;;;;4932570;29;20024;-89
2022/01/03 11:18:38;;;;;;;0.75;0.25;;;10.40;99.90;;;;;;4938564;29;20035;-89
2022/01/03 11:21:09;;;;;;;1.75;0.28;;;10.40;99.90;;;;;;4934808;28;20126;-90
2022/01/03 11:23:36;;;;;;;3.00;0.20;;;10.40;99.90;;;;;;4943750;29;20422;-89
2022/01/03 11:26:07;;;;;;;2.22;0.57;;;10.60;99.90;;;;;;4933407;29;20540;-89
2022/01/03 11:28:33;;;;;;;4.40;0.40;;;10.60;99.90;;;;;;4949891;28;20114;-89
2022/01/03 11:31:02;;;;;;;1.90;0.40;;;10.60;99.90;;;;;;4944575;29;20514;-90
2022/01/03 11:33:28;;;;;;;1.65;0.32;;;10.70;99.90;;;;;;4940359;28;20020;-90
2022/01/03 11:35:58;;;;;;;2.53;0.40;;;10.60;99.90;;;;;;4929961;28;20015;-89
2022/01/03 11:38:30;;;;;;;2.88;0.43;;;10.60;99.90;;;;;;4959571;28;20030;-89
2022/01/03 11:43:26;;;;;;;0.55;0.28;;;10.60;99.90;;;;;;4979620;28;19926;-86
2022/01/03 11:45:52;;;;;;;2.78;0.65;;;10.70;99.90;;;;;;4989582;28;20027;-86
2022/01/03 11:48:18;;;;;;;1.45;0.40;;;10.60;99.90;;;;;;4988241;28;20041;-86
2022/01/03 11:50:44;;;;;;;2.53;0.30;;;10.80;99.90;;;;;;4987439;28;20026;-85
2022/01/03 11:53:10;;;;;;;1.05;0.52;;;10.90;99.90;;;;;;4993938;28;20495;-86
2022/01/03 11:55:40;;;;;;;4.80;0.45;;;10.90;99.90;;;;;;4979861;28;20098;-86
2022/01/03 12:06:11;;;;;;;2.88;0.35;;;10.80;99.90;;;;;;4994808;28;20030;-85
2022/01/03 12:08:40;;;;;;;1.80;0.30;;;10.80;99.90;;;;;;4982302;28;20044;-86
2022/01/03 12:11:23;;;;;;;1.90;0.40;;;10.90;99.90;;;;;;4994245;28;20030;-85
2022/01/03 12:13:55;;;;;;;2.42;0.50;;;10.90;99.90;;;;;;4974941;28;20027;-85
2022/01/03 12:16:40;;;;;;;3.75;0.88;;;10.90;99.90;;;;;;4994089;28;20078;-86
2022/01/03 12:19:08;;;;;;;1.75;0.20;;;10.80;99.90;;;;;;4994227;28;20024;-86
2022/01/03 12:21:49;;;;;;;2.83;0.30;;;10.80;99.90;;;;;;4994304;28;20077;-85
2022/01/03 12:24:30;;;;;;;2.17;0.35;;;10.80;99.90;;;;;;4989427;28;20034;-85
2022/01/03 12:27:14;;;;;;;3.25;0.40;;;10.80;99.90;;;;;;4993246;28;20122;-85
2022/01/03 12:30:01;;;;;;;0.57;0.13;;;10.90;99.90;;;;;;4991443;28;20023;-86
2022/01/03 12:32:32;;;;;;;1.10;0.28;;;10.90;99.90;;;;;;4978904;28;20522;-85
2022/01/03 12:35:16;;;;;;;0.93;0.08;;;10.90;99.90;;;;;;4989626;28;20061;-85
2022/01/03 12:37:54;;;;;;;0.40;0.10;;;10.80;99.90;;;;;;4975836;28;20022;-85
2022/01/03 12:40:25;;;;;;;1.73;0.13;;;10.80;99.90;;;;;;4992282;28;20037;-85
2022/01/03 12:42:54;;;;;;;2.38;0.40;;;10.80;99.90;;;;;;4979588;28;20084;-86
2022/01/03 12:45:47;;;;;;;1.77;0.30;;;10.80;99.90;;;;;;4980080;28;20026;-84
2022/01/03 12:48:14;;;;;;;1.13;0.20;;;10.70;99.90;;;;;;4993066;28;20030;-86
2022/01/03 12:50:58;;;;;;;1.15;0.10;;;10.80;99.90;;;;;;4978563;28;20081;-87
2022/01/03 12:53:27;;;;;;;4.10;0.45;;;10.70;99.90;;;;;;4983206;28;20085;-89
2022/01/03 12:56:02;;;;;;;2.85;0.40;;;10.80;99.90;;;;;;4976517;28;20043;-89
2022/01/03 12:58:27;;;;;;;1.00;0.50;;;10.70;99.90;;;;;;4978198;28;20065;-89
2022/01/03 13:01:10;;;;;;;1.75;0.20;;;10.60;99.90;;;;;;4981403;28;20031;-89
2022/01/03 13:03:57;;;;;;;1.23;0.40;;;10.70;99.90;;;;;;4976499;28;20026;-89
2022/01/03 13:06:32;;;;;;;5.10;0.50;;;10.70;99.90;;;;;;4994745;28;20035;-89
2022/01/03 13:08:58;;;;;;;0.68;0.20;;;10.70;99.90;;;;;;4987213;28;20038;-89
2022/01/03 13:11:59;;;;;;;1.48;0.38;;;10.70;99.90;;;;;;4977642;28;20117;-89
2022/01/03 13:14:25;;;;;;;3.08;0.50;;;10.80;99.90;;;;;;4971167;28;20046;-89
2022/01/03 13:16:55;;;;;;;0.45;0.20;;;10.70;99.90;;;;;;4976393;28;20126;-89
2022/01/03 13:19:32;;;;;;;3.08;0.30;;;10.70;99.90;;;;;;4987985;28;20601;-88
2022/01/03 13:22:12;;;;;;;2.60;0.40;;;10.70;99.90;;;;;;4976810;28;20092;-88
2022/01/03 13:24:46;;;;;;;2.78;0.40;;;10.80;99.90;;;;;;4994201;28;20037;-89
2022/01/03 13:27:22;;;;;;;0.82;0.25;;;10.80;99.90;;;;;;4998496;28;20033;-88
2022/01/03 13:29:57;;;;;;;1.85;0.28;;;10.80;99.90;;;;;;4992227;28;20293;-87
2022/01/03 13:39:19;;;;;;;;;;;;;;;;;;;;;
2022/01/03 13:50:27;;;;;;;3.10;0.75;;;10.90;99.90;;;;;;4986780;28;20450;-89
2022/01/03 13:53:04;;;;;;;3.15;0.35;;;10.90;99.90;;;;;;4987991;28;20023;-88
2022/01/03 13:55:34;;;;;;;2.95;0.30;;;10.90;99.90;;;;;;4987511;28;20289;-89
2022/01/03 13:58:16;;;;;;;2.28;0.20;;;10.80;99.90;;;;;;4987160;28;20027;-90
2022/01/03 14:00:57;;;;;;;1.80;0.35;;;10.80;99.90;;;;;;4986525;28;20399;-90
2022/01/03 14:03:56;;;;;;;1.77;0.40;;;10.80;99.90;;;;;;4986910;28;20092;-89
2022/01/03 14:06:29;;;;;;;2.72;0.50;;;10.80;99.90;;;;;;4938737;28;20039;-88
2022/01/03 14:08:54;;;;;;;;;;;10.70;99.90;;;;;;4982727;28;20065;-89
2022/01/03 14:11:28;;;;;;;0.75;0.20;;;10.60;99.90;;;;;;4974286;28;19985;-89
2022/01/03 14:13:57;;;;;;;1.88;0.50;;;10.60;99.90;;;;;;4975124;28;20019;-88
2022/01/03 14:16:48;;;;;;;1.83;0.32;;;10.60;99.90;;;;;;4972925;28;20057;-89
2022/01/03 14:19:19;;;;;;;1.17;0.40;;;10.60;99.90;;;;;;4967290;28;20037;-89
2022/01/03 14:21:47;;;;;;;0.77;0.28;;;10.50;99.90;;;;;;4981991;28;20026;-89
2022/01/03 14:24:12;;;;;;;1.20;0.30;;;10.50;99.90;;;;;;4972086;28;20533;-88
2022/01/03 14:26:52;;;;;;;1.90;0.30;;;10.60;99.90;;;;;;4986347;28;20037;-89
2022/01/03 14:29:19;;;;;;;0.30;0.15;;;10.50;99.90;;;;;;4985965;28;20035;-89
2022/01/03 14:31:49;;;;;;;1.42;0.30;;;10.50;99.90;;;;;;4969821;28;20533;-90
2022/01/03 14:34:24;;;;;;;0.52;0.20;;;10.60;99.90;;;;;;4988481;28;20542;-89
2022/01/03 14:36:53;;;;;;;2.33;0.20;;;10.50;99.90;;;;;;4974060;28;20057;-89
2022/01/03 14:39:19;;;;;;;4.72;0.52;;;10.60;99.90;;;;;;4989057;28;20022;-90
2022/01/03 14:42:00;;;;;;;2.03;0.73;;;10.60;99.90;;;;;;4979529;28;20027;-89
2022/01/03 14:44:27;;;;;;;1.67;0.30;;;10.60;99.90;;;;;;4973444;28;20093;-89
2022/01/03 14:47:08;;;;;;;2.17;0.43;;;10.60;99.90;;;;;;4988723;28;20056;-89
2022/01/03 14:49:40;;;;;;;4.68;0.47;;;10.60;99.90;;;;;;4970899;28;20030;-91
2022/01/03 14:52:09;;;;;;;2.38;0.40;;;10.60;99.90;;;;;;4993210;28;20022;-89
2022/01/03 14:54:36;;;;;;;1.17;0.22;;;10.60;99.90;;;;;;4978016;28;20035;-90
2022/01/03 14:57:26;;;;;;;1.38;0.93;;;10.60;99.90;;;;;;4981052;28;20022;-90
2022/01/03 14:59:57;;;;;;;0.63;0.30;;;10.60;99.90;;;;;;4975128;28;20483;-91
2022/01/03 15:02:26;;;;;;;3.35;0.30;;;10.60;99.90;;;;;;4996175;28;20041;-90